Time;durP1;ratioP1;P1;durP2;ratioP2;P2;SDS_P1;SDS_P2;PMS_P1;PMS_P2;Temp;Humidity;BMP_temperature;BMP_pressure;BME280_temperature;BME280_humidity;BME280_pressure;Samples;Min_cycle;Max_cycle;Signal;HPM_P1;HPM_P2
2022/11/08 00:02:31;;;;;;;17.10;14.68;;;10.20;99.90;;;;;;5060389;28;20048;-78
2022/11/08 00:16:00;;;;;;;22.02;13.35;;;9.90;99.90;;;;;;5047999;28;20529;-77
2022/11/08 00:18:27;;;;;;;14.75;13.15;;;9.80;99.90;;;;;;5046139;28;20147;-78
2022/11/08 00:20:53;;;;;;;18.30;12.10;;;9.70;99.90;;;;;;5063199;28;20047;-77
2022/11/08 00:23:20;;;;;;;16.08;13.10;;;9.70;99.90;;;;;;5062184;28;20045;-77
2022/11/08 00:25:53;;;;;;;17.20;12.07;;;9.70;99.90;;;;;;5045253;28;20043;-78
2022/11/08 00:28:20;;;;;;;23.27;15.05;;;9.60;99.90;;;;;;5043499;28;20412;-77
2022/11/08 00:30:46;;;;;;;19.38;12.98;;;9.60;99.90;;;;;;5044674;28;20028;-78
2022/11/08 00:33:13;;;;;;;16.42;13.00;;;9.60;99.90;;;;;;5061674;28;20478;-77
2022/11/08 00:35:40;;;;;;;12.65;11.52;;;9.60;99.90;;;;;;5032580;28;20261;-77
2022/11/08 00:38:06;;;;;;;15.93;13.15;;;9.60;99.90;;;;;;5042518;28;20045;-77
2022/11/08 00:40:33;;;;;;;16.33;12.52;;;9.50;99.90;;;;;;5043150;28;20067;-77
2022/11/08 00:43:00;;;;;;;21.83;12.43;;;9.50;99.90;;;;;;5060527;28;20521;-77
2022/11/08 00:45:27;;;;;;;15.15;12.07;;;9.50;99.90;;;;;;5043497;28;20112;-76
2022/11/08 00:47:53;;;;;;;21.13;13.70;;;9.60;99.90;;;;;;5046134;28;20036;-77
2022/11/08 00:50:20;;;;;;;18.67;12.55;;;9.60;99.90;;;;;;5058971;28;20045;-78
2022/11/08 00:52:46;;;;;;;14.95;12.60;;;9.60;99.90;;;;;;5061069;28;20028;-78
2022/11/08 00:55:13;;;;;;;19.05;13.20;;;9.60;99.90;;;;;;5039124;28;20763;-79
2022/11/08 00:57:40;;;;;;;17.65;13.52;;;9.60;99.90;;;;;;5030793;28;20654;-78
2022/11/08 01:00:26;;;;;;;16.00;14.32;;;9.50;99.90;;;;;;5037325;28;20527;-77
2022/11/08 01:03:17;;;;;;;19.25;15.73;;;9.40;99.90;;;;;;5045205;28;20512;-77
2022/11/08 01:05:39;;;;;;;21.00;15.23;;;9.40;99.90;;;;;;5042121;28;20413;-78
2022/11/08 01:08:06;;;;;;;19.95;16.17;;;9.20;99.90;;;;;;5041583;28;20120;-78
2022/11/08 01:10:33;;;;;;;21.65;15.88;;;9.20;99.90;;;;;;5043326;28;20039;-78
2022/11/08 01:13:00;;;;;;;18.55;16.50;;;9.20;99.90;;;;;;5042071;28;20063;-77
2022/11/08 01:15:27;;;;;;;21.42;16.55;;;9.00;99.90;;;;;;5036546;28;20132;-78
2022/11/08 01:17:53;;;;;;;25.08;16.98;;;9.00;99.90;;;;;;5029469;28;20045;-77
2022/11/08 01:20:20;;;;;;;36.03;16.48;;;9.00;99.90;;;;;;5033958;28;21399;-78
2022/11/08 01:22:47;;;;;;;18.55;15.85;;;9.00;99.90;;;;;;5020804;28;20064;-78
2022/11/08 01:25:13;;;;;;;19.17;14.50;;;9.00;99.90;;;;;;5041593;28;20053;-78
2022/11/08 01:27:42;;;;;;;20.98;14.18;;;8.90;99.90;;;;;;5038871;28;20442;-77
2022/11/08 01:30:09;;;;;;;19.77;13.98;;;8.90;99.90;;;;;;5057153;28;20035;-78
2022/11/08 01:32:36;;;;;;;14.70;12.75;;;8.90;99.90;;;;;;5062175;28;20064;-77
2022/11/08 01:35:03;;;;;;;20.13;12.25;;;8.90;99.90;;;;;;5042297;28;20048;-77
2022/11/08 01:37:30;;;;;;;22.60;12.70;;;8.90;99.90;;;;;;5025401;28;20051;-77
2022/11/08 01:39:56;;;;;;;13.63;12.25;;;9.00;99.90;;;;;;5042166;28;20033;-77
2022/11/08 01:42:31;;;;;;;20.38;12.70;;;9.00;99.90;;;;;;5060206;28;20045;-78
2022/11/08 01:45:00;;;;;;;17.33;12.73;;;9.00;99.90;;;;;;5042539;28;20052;-78
2022/11/08 01:47:26;;;;;;;15.57;12.02;;;9.00;99.90;;;;;;5060024;28;20525;-78
2022/11/08 01:49:57;;;;;;;21.65;13.70;;;9.10;99.90;;;;;;5036195;28;20040;-77
2022/11/08 01:52:24;;;;;;;15.93;11.98;;;9.10;99.90;;;;;;5046448;28;20032;-78
2022/11/08 01:54:54;;;;;;;22.58;13.55;;;9.10;99.90;;;;;;5040173;28;20429;-78
2022/11/08 01:57:27;;;;;;;18.83;13.48;;;9.10;99.90;;;;;;5059035;28;20129;-78
2022/11/08 01:59:57;;;;;;;18.83;13.55;;;9.10;99.90;;;;;;5040063;28;20760;-77
2022/11/08 02:02:25;;;;;;;17.75;13.57;;;9.00;99.90;;;;;;5032830;28;20136;-78
2022/11/08 02:04:53;;;;;;;22.50;15.32;;;9.10;99.90;;;;;;5059211;28;20048;-77
2022/11/08 02:07:20;;;;;;;23.55;14.55;;;9.00;99.90;;;;;;5040906;28;20037;-77
2022/11/08 02:09:47;;;;;;;17.15;13.10;;;9.00;99.90;;;;;;5035201;28;20068;-77
2022/11/08 02:12:15;;;;;;;15.98;13.48;;;9.10;99.90;;;;;;5037373;28;20045;-77
2022/11/08 02:14:42;;;;;;;19.27;13.75;;;9.10;99.90;;;;;;5060501;28;20402;-78
2022/11/08 02:17:09;;;;;;;24.08;13.88;;;9.10;99.90;;;;;;5055894;28;20056;-77
2022/11/08 02:19:43;;;;;;;21.48;13.48;;;9.10;99.90;;;;;;5038684;28;20060;-77
2022/11/08 02:22:24;;;;;;;18.38;13.55;;;9.10;99.90;;;;;;5038981;28;20041;-77
2022/11/08 02:24:51;;;;;;;23.20;13.88;;;9.10;99.90;;;;;;5040838;28;20139;-77
2022/11/08 02:27:18;;;;;;;17.58;13.48;;;9.10;99.90;;;;;;5038829;28;20043;-78
2022/11/08 02:29:45;;;;;;;23.70;14.55;;;9.10;99.90;;;;;;5033960;28;20037;-77
2022/11/08 02:32:11;;;;;;;17.90;14.25;;;9.20;99.90;;;;;;5029621;28;20048;-77
2022/11/08 02:34:54;;;;;;;16.17;13.95;;;9.20;99.90;;;;;;5025667;28;20037;-77
2022/11/08 02:37:23;;;;;;;22.35;14.88;;;9.20;99.90;;;;;;5036024;28;20482;-78
2022/11/08 02:39:50;;;;;;;22.83;15.70;;;9.20;99.90;;;;;;5034986;28;20052;-78
2022/11/08 02:42:19;;;;;;;20.52;13.93;;;9.10;99.90;;;;;;5039804;28;20047;-77
2022/11/08 02:44:46;;;;;;;33.50;15.90;;;9.20;99.90;;;;;;5045877;28;20367;-77
2022/11/08 02:47:14;;;;;;;29.52;16.02;;;9.10;99.90;;;;;;5037572;28;20051;-77
2022/11/08 02:49:40;;;;;;;21.60;14.43;;;9.10;99.90;;;;;;5039298;28;20037;-77
2022/11/08 02:52:07;;;;;;;18.30;14.02;;;9.20;99.90;;;;;;5055033;28;20025;-77
2022/11/08 02:54:34;;;;;;;30.88;16.73;;;9.10;99.90;;;;;;5053889;28;20051;-78
2022/11/08 02:57:00;;;;;;;19.15;15.23;;;9.10;99.90;;;;;;5054058;28;20067;-78
2022/11/08 02:59:27;;;;;;;28.40;16.80;;;9.10;99.90;;;;;;5051584;28;20055;-77
2022/11/08 03:01:54;;;;;;;35.20;15.27;;;9.10;99.90;;;;;;5022417;28;20036;-76
2022/11/08 03:04:20;;;;;;;25.45;15.32;;;9.10;99.90;;;;;;5027509;28;20048;-78
2022/11/08 03:06:47;;;;;;;21.15;14.98;;;9.10;99.90;;;;;;5041296;28;20140;-78
2022/11/08 03:09:14;;;;;;;24.67;14.32;;;9.20;99.90;;;;;;5041308;28;20054;-77
2022/11/08 03:11:40;;;;;;;24.77;13.93;;;9.30;99.90;;;;;;5040417;28;20044;-77
2022/11/08 03:14:07;;;;;;;27.83;14.27;;;9.30;99.90;;;;;;5061384;28;20036;-78
2022/11/08 03:16:34;;;;;;;23.58;15.63;;;9.40;99.90;;;;;;5037676;28;20029;-77
2022/11/08 03:19:00;;;;;;;19.98;12.43;;;9.40;99.90;;;;;;5050578;28;20067;-78
2022/11/08 03:21:27;;;;;;;28.02;13.98;;;9.50;99.90;;;;;;5042835;28;20533;-78
2022/11/08 03:23:54;;;;;;;20.88;12.05;;;9.50;99.90;;;;;;5033139;28;20041;-77
2022/11/08 03:26:21;;;;;;;19.98;12.63;;;9.60;99.90;;;;;;5054045;28;20040;-78
2022/11/08 03:28:48;;;;;;;19.85;11.57;;;9.60;99.90;;;;;;5047127;28;20037;-78
2022/11/08 03:31:14;;;;;;;16.83;12.38;;;9.70;99.90;;;;;;5041653;28;20139;-76
2022/11/08 03:33:41;;;;;;;16.42;11.85;;;9.70;99.90;;;;;;5035726;28;20040;-79
2022/11/08 03:36:08;;;;;;;17.58;12.52;;;9.70;99.90;;;;;;5040946;28;20307;-78
2022/11/08 03:38:34;;;;;;;17.80;11.85;;;9.70;99.90;;;;;;5064139;28;20045;-76
2022/11/08 03:41:01;;;;;;;19.90;13.75;;;9.70;99.90;;;;;;5048309;28;20040;-78
2022/11/08 03:43:28;;;;;;;15.30;12.25;;;9.70;99.90;;;;;;5030745;28;20082;-78
2022/11/08 03:45:54;;;;;;;20.23;13.00;;;9.70;99.90;;;;;;5063382;28;20052;-78
2022/11/08 03:48:22;;;;;;;16.58;12.35;;;9.80;99.90;;;;;;5037100;28;20036;-77
2022/11/08 03:50:52;;;;;;;18.63;13.88;;;9.80;99.90;;;;;;5030864;28;20728;-77
2022/11/08 03:53:18;;;;;;;14.32;12.55;;;9.80;99.90;;;;;;5051854;28;20048;-77
2022/11/08 03:55:45;;;;;;;20.67;13.35;;;9.80;99.90;;;;;;5067280;28;20740;-77
2022/11/08 03:58:12;;;;;;;16.20;13.18;;;9.80;99.90;;;;;;5046216;28;20045;-77
2022/11/08 04:00:39;;;;;;;19.08;12.77;;;9.80;99.90;;;;;;5065280;28;20091;-77
2022/11/08 04:03:06;;;;;;;15.02;12.80;;;9.80;99.90;;;;;;5050975;28;20054;-78
2022/11/08 04:05:33;;;;;;;14.38;12.85;;;9.70;99.90;;;;;;5046646;28;20044;-78
2022/11/08 04:08:00;;;;;;;25.52;13.73;;;9.70;99.90;;;;;;5037408;28;20080;-78
2022/11/08 04:10:27;;;;;;;25.40;12.98;;;9.60;99.90;;;;;;5062299;28;20044;-78
2022/11/08 04:15:42;;;;;;;17.00;13.27;;;9.60;99.90;;;;;;5043581;28;20123;-78
2022/11/08 04:23:56;;;;;;;18.00;13.68;;;9.60;99.90;;;;;;5026676;28;20048;-77
2022/11/08 04:26:23;;;;;;;23.38;14.65;;;9.60;99.90;;;;;;5044019;28;20048;-78
2022/11/08 04:28:50;;;;;;;14.60;12.63;;;9.60;99.90;;;;;;5045232;28;20055;-78
2022/11/08 04:31:18;;;;;;;30.00;13.82;;;9.50;99.90;;;;;;5045042;28;20036;-77
2022/11/08 04:33:45;;;;;;;25.63;14.27;;;9.50;99.90;;;;;;5045363;28;20041;-77
2022/11/08 04:36:14;;;;;;;14.52;12.98;;;9.40;99.90;;;;;;5027280;28;20534;-78
2022/11/08 04:38:40;;;;;;;20.20;13.75;;;9.30;99.90;;;;;;5037506;28;20049;-77
2022/11/08 04:41:11;;;;;;;18.38;14.90;;;9.30;99.90;;;;;;5042454;28;20037;-78
2022/11/08 04:43:37;;;;;;;20.80;14.27;;;9.20;99.90;;;;;;5040850;28;20179;-77
2022/11/08 04:46:07;;;;;;;19.08;13.25;;;9.20;99.90;;;;;;5045435;28;20456;-77
2022/11/08 04:48:34;;;;;;;17.50;13.75;;;9.10;99.90;;;;;;5061287;28;20032;-77
2022/11/08 04:51:07;;;;;;;22.83;13.68;;;9.20;99.90;;;;;;5040104;28;20071;-77
2022/11/08 04:53:34;;;;;;;17.95;13.02;;;9.10;99.90;;;;;;5043590;28;20041;-78
2022/11/08 04:56:04;;;;;;;19.38;14.02;;;9.10;99.90;;;;;;5047217;28;20054;-77
2022/11/08 04:58:36;;;;;;;30.63;15.02;;;9.10;99.90;;;;;;5042678;28;20163;-77
2022/11/08 05:01:04;;;;;;;26.88;15.35;;;9.00;99.90;;;;;;5041118;28;20040;-78
2022/11/08 05:03:32;;;;;;;25.15;14.15;;;9.00;99.90;;;;;;5041052;28;20127;-77
2022/11/08 05:06:04;;;;;;;17.02;13.13;;;9.10;99.90;;;;;;5063079;28;20528;-76
2022/11/08 05:08:31;;;;;;;22.67;13.57;;;9.10;99.90;;;;;;5042968;28;20041;-77
2022/11/08 05:11:10;;;;;;;15.32;11.65;;;9.00;99.90;;;;;;5037310;28;20039;-77
2022/11/08 05:13:37;;;;;;;41.28;14.43;;;9.00;99.90;;;;;;5045405;28;20045;-77
2022/11/08 05:16:06;;;;;;;20.65;14.02;;;9.00;99.90;;;;;;5038588;28;20055;-77
2022/11/08 05:18:33;;;;;;;22.70;14.27;;;9.00;99.90;;;;;;5031851;28;20048;-78
2022/11/08 05:23:48;;;;;;;34.20;15.18;;;9.00;99.90;;;;;;5057927;28;20296;-78
2022/11/08 05:26:17;;;;;;;20.92;13.50;;;9.00;99.90;;;;;;5041681;28;20045;-77
2022/11/08 05:28:44;;;;;;;23.85;14.40;;;9.00;99.90;;;;;;5041969;28;20080;-77
2022/11/08 05:31:11;;;;;;;29.17;14.98;;;9.00;99.90;;;;;;5039798;28;20036;-77
2022/11/08 05:33:37;;;;;;;23.90;13.52;;;9.00;99.90;;;;;;5037610;28;20045;-77
2022/11/08 05:36:06;;;;;;;22.63;14.85;;;9.00;99.90;;;;;;5035034;28;20035;-77
2022/11/08 05:38:34;;;;;;;27.88;13.63;;;9.00;99.90;;;;;;5058443;28;20048;-77
2022/11/08 05:41:06;;;;;;;24.02;14.68;;;9.00;99.90;;;;;;5038673;28;20044;-77
2022/11/08 05:43:33;;;;;;;27.88;14.38;;;9.00;99.90;;;;;;5057194;28;20416;-77
2022/11/08 05:46:00;;;;;;;25.10;13.52;;;9.00;99.90;;;;;;5042253;28;20047;-77
2022/11/08 05:48:27;;;;;;;21.60;12.75;;;9.00;99.90;;;;;;5032194;28;20123;-76
2022/11/08 05:50:54;;;;;;;20.05;12.70;;;9.00;99.90;;;;;;5032316;28;20028;-77
2022/11/08 05:53:21;;;;;;;21.15;15.10;;;9.10;99.90;;;;;;5039896;28;20044;-77
2022/11/08 05:55:48;;;;;;;14.55;12.57;;;9.00;99.90;;;;;;5034105;28;20037;-77
2022/11/08 05:58:15;;;;;;;22.83;13.93;;;9.00;99.90;;;;;;5039096;28;20044;-78
2022/11/08 06:00:42;;;;;;;21.77;14.02;;;9.00;99.90;;;;;;5058459;28;20390;-77
2022/11/08 06:03:09;;;;;;;18.98;15.07;;;9.00;99.90;;;;;;5060395;28;20055;-78
2022/11/08 06:05:36;;;;;;;26.50;14.63;;;9.00;99.90;;;;;;5038761;28;20071;-77
2022/11/08 06:08:03;;;;;;;21.60;14.27;;;9.00;99.90;;;;;;5041803;28;20071;-77
2022/11/08 06:10:30;;;;;;;24.20;15.35;;;9.00;99.90;;;;;;5040739;28;20045;-77
2022/11/08 06:13:01;;;;;;;24.80;15.18;;;9.00;99.90;;;;;;5056496;28;20045;-77
2022/11/08 06:15:27;;;;;;;24.38;15.10;;;9.00;99.90;;;;;;5043020;28;20036;-77
2022/11/08 06:17:54;;;;;;;19.45;15.55;;;9.00;99.90;;;;;;5043376;28;20045;-77
2022/11/08 06:20:21;;;;;;;18.70;13.75;;;9.00;99.90;;;;;;5038130;28;20059;-79
2022/11/08 06:22:48;;;;;;;24.13;14.07;;;9.00;99.90;;;;;;5041032;28;20049;-77
2022/11/08 06:25:15;;;;;;;24.95;15.75;;;8.90;99.90;;;;;;5034716;28;20051;-77
2022/11/08 06:27:41;;;;;;;24.77;15.07;;;9.00;99.90;;;;;;5055116;28;20054;-77
2022/11/08 06:30:09;;;;;;;30.10;15.35;;;9.00;99.90;;;;;;5038165;28;20045;-78
2022/11/08 06:32:35;;;;;;;20.40;15.40;;;8.90;99.90;;;;;;5042413;28;20051;-77
2022/11/08 06:35:02;;;;;;;28.75;16.48;;;8.90;99.90;;;;;;5058629;28;20025;-78
2022/11/08 06:37:29;;;;;;;25.95;17.45;;;9.00;99.90;;;;;;5027474;28;20033;-77
2022/11/08 06:39:57;;;;;;;28.13;17.13;;;8.90;99.90;;;;;;5058237;28;20136;-77
2022/11/08 06:42:25;;;;;;;29.83;17.33;;;8.90;99.90;;;;;;5033825;28;20075;-77
2022/11/08 06:44:51;;;;;;;28.48;17.55;;;9.00;99.90;;;;;;5056574;28;20056;-76
2022/11/08 06:47:18;;;;;;;31.40;19.05;;;8.90;99.90;;;;;;5021423;28;20136;-77
2022/11/08 06:49:45;;;;;;;30.35;18.48;;;8.90;99.90;;;;;;5039194;28;20067;-77
2022/11/08 06:52:11;;;;;;;27.65;20.80;;;9.00;99.90;;;;;;5052733;28;20041;-78
2022/11/08 06:54:38;;;;;;;29.38;20.13;;;9.00;99.90;;;;;;5040229;28;20711;-77
2022/11/08 06:57:05;;;;;;;29.67;20.75;;;9.00;99.90;;;;;;5040260;28;20131;-78
2022/11/08 06:59:31;;;;;;;25.60;18.00;;;9.10;99.90;;;;;;5031946;28;20041;-78
2022/11/08 07:01:58;;;;;;;29.17;19.40;;;9.00;99.90;;;;;;5039996;28;20036;-78
2022/11/08 07:04:25;;;;;;;25.42;16.35;;;9.10;99.90;;;;;;5035111;28;20051;-78
2022/11/08 07:06:51;;;;;;;29.42;18.20;;;9.20;99.90;;;;;;5057410;28;20140;-78
2022/11/08 07:09:18;;;;;;;23.75;15.90;;;9.10;99.90;;;;;;5038949;28;20043;-77
2022/11/08 07:11:45;;;;;;;22.55;15.77;;;9.20;99.90;;;;;;5055729;28;20135;-76
2022/11/08 07:14:12;;;;;;;21.30;16.77;;;9.20;99.90;;;;;;5037328;28;20390;-77
2022/11/08 07:16:38;;;;;;;22.75;17.20;;;9.20;99.90;;;;;;5058163;28;20033;-77
2022/11/08 07:19:05;;;;;;;19.75;17.27;;;9.30;99.90;;;;;;5031831;28;20588;-76
2022/11/08 07:21:32;;;;;;;19.85;15.93;;;9.30;99.90;;;;;;5021047;28;20049;-78
2022/11/08 07:23:58;;;;;;;28.52;16.75;;;9.40;99.90;;;;;;5037688;28;20441;-78
2022/11/08 07:26:25;;;;;;;17.10;14.88;;;9.40;99.90;;;;;;5044344;28;20043;-78
2022/11/08 07:28:51;;;;;;;20.80;16.45;;;9.40;99.90;;;;;;5037176;28;20072;-77
2022/11/08 07:31:18;;;;;;;24.23;16.38;;;9.50;99.90;;;;;;5054752;28;20056;-77
2022/11/08 07:33:45;;;;;;;26.23;17.90;;;9.50;99.90;;;;;;5036933;28;20054;-78
2022/11/08 07:36:12;;;;;;;23.13;16.77;;;9.50;99.90;;;;;;5045628;28;20040;-78
2022/11/08 07:38:39;;;;;;;21.42;17.25;;;9.50;99.90;;;;;;5037665;28;20059;-77
2022/11/08 07:41:05;;;;;;;25.65;17.77;;;9.50;99.90;;;;;;5057301;28;20037;-77
2022/11/08 07:43:32;;;;;;;16.65;14.73;;;9.60;99.90;;;;;;5051694;28;20072;-77
2022/11/08 07:46:08;;;;;;;27.08;18.92;;;9.60;99.90;;;;;;5040168;28;20664;-77
2022/11/08 07:48:34;;;;;;;19.27;17.42;;;9.60;99.90;;;;;;5033572;28;20048;-78
2022/11/08 07:51:01;;;;;;;19.40;17.27;;;9.70;99.90;;;;;;5040443;28;20048;-77
2022/11/08 07:53:28;;;;;;;18.88;17.20;;;9.80;99.90;;;;;;5036454;28;20589;-78
2022/11/08 07:55:57;;;;;;;21.48;18.05;;;9.90;99.90;;;;;;5033272;28;20036;-77
2022/11/08 07:58:24;;;;;;;20.73;18.85;;;10.10;99.90;;;;;;5039026;28;20045;-77
2022/11/08 08:00:50;;;;;;;21.60;19.50;;;10.20;99.90;;;;;;5027419;28;20067;-77
2022/11/08 08:03:17;;;;;;;21.63;20.08;;;10.30;99.90;;;;;;5028595;28;20048;-77
2022/11/08 08:05:49;;;;;;;21.85;20.23;;;10.50;99.90;;;;;;5040454;28;20139;-79
2022/11/08 08:08:16;;;;;;;22.52;20.95;;;10.60;99.90;;;;;;5057059;28;20063;-76
2022/11/08 08:10:42;;;;;;;22.67;21.02;;;10.70;99.90;;;;;;5033166;28;20466;-78
2022/11/08 08:13:10;;;;;;;23.75;21.95;;;10.80;99.90;;;;;;5043029;28;20447;-78
2022/11/08 08:15:37;;;;;;;22.50;21.00;;;10.90;99.90;;;;;;5033423;28;20546;-78
2022/11/08 08:18:06;;;;;;;23.35;21.40;;;10.90;99.90;;;;;;5042231;28;20041;-77
2022/11/08 08:20:33;;;;;;;23.95;22.05;;;10.90;99.90;;;;;;5033803;28;20247;-77
2022/11/08 08:23:00;;;;;;;23.98;22.08;;;11.00;99.90;;;;;;5043375;28;20143;-76
2022/11/08 08:25:29;;;;;;;24.33;22.27;;;11.10;99.90;;;;;;5042001;28;20104;-78
2022/11/08 08:27:58;;;;;;;24.88;22.60;;;11.10;99.90;;;;;;5046765;28;20051;-77
2022/11/08 08:30:25;;;;;;;26.08;23.80;;;11.10;99.90;;;;;;5022661;28;20044;-77
2022/11/08 08:33:00;;;;;;;24.55;22.90;;;11.10;99.90;;;;;;5027469;28;20041;-78
2022/11/08 08:35:47;;;;;;;25.80;24.02;;;11.30;99.90;;;;;;5041077;28;20033;-77
2022/11/08 08:38:14;;;;;;;25.98;24.00;;;11.30;99.90;;;;;;5035877;28;20052;-78
2022/11/08 08:40:40;;;;;;;26.00;24.08;;;11.40;99.90;;;;;;5032513;28;20044;-76
2022/11/08 08:43:07;;;;;;;28.55;25.80;;;11.50;99.90;;;;;;5026743;28;20048;-76
2022/11/08 08:45:35;;;;;;;27.50;25.60;;;11.50;99.90;;;;;;5040240;28;20033;-79
2022/11/08 08:48:03;;;;;;;26.42;24.73;;;11.40;99.90;;;;;;5040003;28;20067;-78
2022/11/08 08:50:31;;;;;;;27.27;25.17;;;11.40;99.90;;;;;;5025307;28;20680;-77
2022/11/08 08:53:00;;;;;;;27.92;25.80;;;11.40;99.90;;;;;;5041421;28;20051;-78
2022/11/08 08:55:27;;;;;;;26.48;24.60;;;11.40;99.90;;;;;;5041125;28;20041;-78
2022/11/08 08:57:54;;;;;;;27.58;25.65;;;11.40;99.90;;;;;;5063238;28;20512;-77
2022/11/08 09:00:21;;;;;;;26.08;24.48;;;11.40;99.90;;;;;;5030673;28;20048;-78
2022/11/08 09:03:09;;;;;;;27.38;25.63;;;11.50;99.90;;;;;;5045762;28;20037;-78
2022/11/08 09:05:40;;;;;;;27.83;25.92;;;11.70;99.90;;;;;;5039308;28;20445;-78
2022/11/08 09:08:06;;;;;;;27.15;25.40;;;11.80;99.90;;;;;;5057300;28;20041;-76
2022/11/08 09:10:33;;;;;;;26.73;25.08;;;12.00;99.90;;;;;;5041027;28;20032;-79
2022/11/08 09:13:01;;;;;;;25.30;23.83;;;12.00;99.90;;;;;;5034496;28;20446;-77
2022/11/08 09:15:28;;;;;;;26.98;24.48;;;12.10;99.90;;;;;;5034347;28;20045;-78
2022/11/08 09:17:55;;;;;;;26.80;24.85;;;12.20;99.90;;;;;;5059976;28;20048;-78
2022/11/08 09:20:23;;;;;;;25.48;24.08;;;12.20;99.90;;;;;;5037898;28;20056;-77
2022/11/08 09:22:49;;;;;;;26.23;24.60;;;12.20;99.90;;;;;;5041286;28;20037;-78
2022/11/08 09:25:17;;;;;;;26.35;24.85;;;12.30;99.90;;;;;;5041277;28;20052;-78
2022/11/08 09:27:43;;;;;;;26.48;24.63;;;12.40;99.90;;;;;;5040541;28;20040;-77
2022/11/08 09:30:10;;;;;;;25.92;24.23;;;12.40;99.90;;;;;;5028607;28;20052;-78
2022/11/08 09:32:37;;;;;;;26.70;24.73;;;12.50;99.90;;;;;;5038080;28;20048;-77
2022/11/08 09:35:23;;;;;;;27.00;25.40;;;12.60;99.90;;;;;;5048807;28;20059;-77
2022/11/08 09:37:54;;;;;;;25.63;23.88;;;12.60;99.90;;;;;;5032269;28;20037;-77
2022/11/08 09:40:31;;;;;;;24.98;23.42;;;12.50;99.90;;;;;;5022404;28;20161;-77
2022/11/08 09:43:36;;;;;;;25.65;24.17;;;12.60;99.90;;;;;;5038254;28;20680;-77
2022/11/08 09:46:03;;;;;;;24.65;23.20;;;12.60;99.90;;;;;;5056373;28;20043;-77
2022/11/08 09:48:40;;;;;;;25.63;23.83;;;12.80;99.90;;;;;;5057943;28;20044;-78
2022/11/08 09:51:17;;;;;;;25.08;23.63;;;12.80;99.90;;;;;;5038103;28;20082;-78
2022/11/08 09:53:55;;;;;;;25.23;23.80;;;12.90;99.90;;;;;;5028883;28;20127;-77
2022/11/08 09:56:27;;;;;;;24.52;23.13;;;12.90;99.90;;;;;;5021585;28;20357;-78
2022/11/08 09:59:15;;;;;;;24.45;23.00;;;12.90;99.90;;;;;;5034097;28;20048;-76
2022/11/08 10:01:41;;;;;;;25.58;23.83;;;12.90;99.90;;;;;;5037166;28;20044;-77
2022/11/08 10:04:15;;;;;;;25.70;24.00;;;12.90;99.90;;;;;;5036676;28;20076;-76
2022/11/08 10:07:04;;;;;;;24.23;22.85;;;13.00;99.90;;;;;;5042640;28;20051;-77
2022/11/08 10:09:57;;;;;;;22.95;21.45;;;13.20;99.90;;;;;;5055093;28;20044;-78
2022/11/08 10:12:29;;;;;;;22.77;21.27;;;13.30;99.90;;;;;;5054239;28;20040;-77
2022/11/08 10:15:04;;;;;;;24.92;22.98;;;13.30;99.90;;;;;;5053086;28;20044;-77
2022/11/08 10:17:58;;;;;;;23.85;22.38;;;13.00;99.90;;;;;;5035204;28;20464;-78
2022/11/08 10:20:43;;;;;;;22.92;21.65;;;12.90;99.90;;;;;;5035247;28;20046;-77
2022/11/08 10:23:23;;;;;;;24.20;22.63;;;12.70;99.90;;;;;;5024748;28;20051;-78
2022/11/08 10:25:57;;;;;;;23.45;21.95;;;12.80;99.90;;;;;;5056859;28;20036;-77
2022/11/08 10:28:33;;;;;;;22.98;21.55;;;12.80;99.90;;;;;;5038722;28;20051;-76
2022/11/08 10:31:00;;;;;;;23.33;21.80;;;12.90;99.90;;;;;;5034500;28;20036;-78
2022/11/08 10:33:45;;;;;;;23.88;22.05;;;12.90;99.90;;;;;;5037577;28;20579;-76
2022/11/08 10:36:16;;;;;;;;;;;12.90;99.90;;;;;;5056379;28;20549;-77
2022/11/08 10:39:07;;;;;;;23.02;21.52;;;13.00;99.90;;;;;;5038068;28;19924;-78
2022/11/08 10:41:54;;;;;;;23.42;21.92;;;13.10;99.90;;;;;;5034094;28;20123;-78
2022/11/08 10:44:25;;;;;;;23.75;22.35;;;13.10;99.90;;;;;;5038028;28;20062;-78
2022/11/08 10:46:55;;;;;;;23.70;21.98;;;13.20;99.90;;;;;;5053167;28;21246;-77
2022/11/08 10:49:28;;;;;;;22.38;21.08;;;13.20;99.90;;;;;;5054122;28;20520;-77
2022/11/08 10:52:19;;;;;;;23.17;21.77;;;13.20;99.90;;;;;;5034317;28;20040;-77
2022/11/08 10:54:54;;;;;;;22.83;21.30;;;13.30;99.90;;;;;;5007459;28;20043;-78
2022/11/08 10:57:22;;;;;;;;;;;13.40;99.90;;;;;;5035438;28;20571;-77
2022/11/08 10:59:50;;;;;;;22.65;21.05;;;13.40;99.90;;;;;;5039270;28;19920;-77
2022/11/08 11:02:37;;;;;;;22.90;21.15;;;13.60;99.90;;;;;;5031684;28;20052;-77
2022/11/08 11:05:18;;;;;;;22.35;20.95;;;13.60;99.90;;;;;;5015172;28;20056;-77
2022/11/08 11:08:07;;;;;;;22.65;20.65;;;13.70;99.90;;;;;;5052101;28;20037;-78
2022/11/08 11:10:40;;;;;;;20.92;19.63;;;13.70;99.90;;;;;;5034238;28;20410;-76
2022/11/08 11:13:17;;;;;;;21.95;20.55;;;13.80;99.90;;;;;;5057996;28;20036;-78
2022/11/08 11:15:59;;;;;;;22.02;20.73;;;13.80;99.90;;;;;;5033705;28;20051;-78
2022/11/08 11:18:32;;;;;;;22.27;20.77;;;13.90;99.90;;;;;;5035427;28;20048;-78
2022/11/08 11:21:10;;;;;;;21.67;20.23;;;14.00;99.90;;;;;;5035135;28;20563;-78
2022/11/08 11:23:36;;;;;;;21.23;19.85;;;14.00;99.90;;;;;;5037195;28;20514;-78
2022/11/08 11:26:05;;;;;;;22.05;20.55;;;14.10;99.90;;;;;;5037244;28;20055;-78
2022/11/08 11:28:34;;;;;;;21.25;20.02;;;14.10;99.90;;;;;;5028182;28;20041;-77
2022/11/08 11:31:13;;;;;;;21.30;19.95;;;14.00;99.90;;;;;;5029232;28;20056;-78
2022/11/08 11:33:47;;;;;;;21.80;20.40;;;14.00;99.90;;;;;;5056165;28;20036;-77
2022/11/08 11:36:19;;;;;;;22.58;21.05;;;14.00;99.90;;;;;;5038625;28;20045;-78
2022/11/08 11:39:05;;;;;;;22.20;20.90;;;14.10;99.90;;;;;;5054851;28;20045;-77
2022/11/08 11:41:39;;;;;;;21.10;19.90;;;14.10;99.90;;;;;;5029435;28;20707;-78
2022/11/08 11:44:15;;;;;;;21.95;20.30;;;14.20;99.90;;;;;;5056985;28;20212;-77
2022/11/08 11:46:52;;;;;;;20.70;19.50;;;14.20;99.90;;;;;;5045471;28;20048;-80
2022/11/08 11:49:20;;;;;;;20.98;19.67;;;14.20;99.90;;;;;;5041859;28;20033;-78
2022/11/08 11:51:50;;;;;;;21.75;20.27;;;14.30;99.90;;;;;;5039800;28;20436;-78
2022/11/08 11:54:16;;;;;;;22.73;21.15;;;14.30;99.90;;;;;;5049357;28;20053;-77
2022/11/08 11:56:52;;;;;;;22.42;20.95;;;14.30;99.90;;;;;;5037568;28;20047;-77
2022/11/08 11:59:44;;;;;;;22.33;20.88;;;14.30;99.90;;;;;;5042876;28;20044;-79
2022/11/08 12:02:38;;;;;;;21.77;20.58;;;14.20;99.90;;;;;;5060378;28;20036;-78
2022/11/08 12:05:46;;;;;;;21.70;20.50;;;14.10;99.90;;;;;;5042169;28;20036;-78
2022/11/08 12:08:44;;;;;;;21.33;20.10;;;14.10;99.90;;;;;;4994537;28;20049;-76
2022/11/08 12:11:13;;;;;;;21.52;20.33;;;14.10;99.90;;;;;;5058010;28;20261;-77
2022/11/08 12:14:05;;;;;;;21.67;20.33;;;14.10;99.90;;;;;;5055054;28;20043;-77
2022/11/08 12:16:49;;;;;;;22.10;20.65;;;14.00;99.90;;;;;;5022605;28;20573;-77
2022/11/08 12:19:22;;;;;;;21.52;20.15;;;14.00;99.90;;;;;;5043927;28;20075;-76
2022/11/08 12:21:58;;;;;;;21.77;20.23;;;14.00;99.90;;;;;;5038486;28;20136;-78
2022/11/08 12:24:36;;;;;;;21.83;20.52;;;14.00;99.90;;;;;;5049403;28;20059;-77
2022/11/08 12:27:18;;;;;;;21.52;20.10;;;14.00;99.90;;;;;;5035893;28;20522;-77
2022/11/08 12:30:10;;;;;;;21.17;19.88;;;14.00;99.90;;;;;;5040054;28;20037;-78
2022/11/08 12:32:52;;;;;;;20.77;19.58;;;14.10;99.90;;;;;;5060008;28;20537;-77
2022/11/08 12:35:34;;;;;;;20.55;19.35;;;14.10;99.90;;;;;;5035230;28;20071;-77
2022/11/08 12:38:16;;;;;;;19.85;18.63;;;14.10;99.90;;;;;;5037074;28;20083;-77
2022/11/08 12:40:53;;;;;;;20.80;19.50;;;14.10;99.90;;;;;;5057566;28;20051;-77
2022/11/08 12:43:38;;;;;;;20.40;19.30;;;14.10;99.90;;;;;;5058833;28;20049;-78
2022/11/08 12:46:17;;;;;;;20.63;19.13;;;14.10;99.90;;;;;;5057466;28;20391;-77
2022/11/08 12:49:28;;;;;;;20.90;19.60;;;14.10;99.90;;;;;;5036461;28;20283;-77
2022/11/08 12:52:42;;;;;;;21.15;19.55;;;14.10;99.90;;;;;;5005272;28;20045;-77
2022/11/08 12:55:21;;;;;;;21.48;19.70;;;14.10;99.90;;;;;;5049151;28;20048;-78
2022/11/08 12:57:51;;;;;;;21.27;20.08;;;14.10;99.90;;;;;;5038612;28;20036;-78
2022/11/08 13:00:18;;;;;;;21.20;19.88;;;14.10;99.90;;;;;;5036141;28;20055;-78
2022/11/08 13:03:11;;;;;;;22.15;20.42;;;14.10;99.90;;;;;;5054217;28;20051;-77
2022/11/08 13:05:48;;;;;;;21.25;19.85;;;14.10;99.90;;;;;;5032317;28;20115;-77
2022/11/08 13:08:33;;;;;;;21.38;19.92;;;14.10;99.90;;;;;;5049304;28;20418;-78
2022/11/08 13:11:07;;;;;;;20.77;19.52;;;14.20;99.90;;;;;;5039350;28;20072;-78
2022/11/08 13:13:46;;;;;;;20.15;19.05;;;14.20;99.90;;;;;;5044304;28;20044;-77
2022/11/08 13:16:20;;;;;;;20.23;19.02;;;14.10;99.90;;;;;;5041138;28;20570;-79